sensor_id;sensor_type;location;lat;lon;timestamp;P1;durP1;ratioP1;P2;durP2;ratioP2
51836;SDS011;38941;53.254;6.600;2023-08-01T00:00:35;10.55;;;3.10;;
51836;SDS011;38941;53.254;6.600;2023-08-01T00:02:36;10.65;;;2.55;;
51836;SDS011;38941;53.254;6.600;2023-08-01T00:04:37;8.70;;;2.60;;
51836;SDS011;38941;53.254;6.600;2023-08-01T00:06:37;15.55;;;4.15;;
51836;SDS011;38941;53.254;6.600;2023-08-01T00:08:38;17.70;;;3.38;;
51836;SDS011;38941;53.254;6.600;2023-08-01T00:10:39;12.43;;;3.53;;
51836;SDS011;38941;53.254;6.600;2023-08-01T00:12:40;10.75;;;3.30;;
51836;SDS011;38941;53.254;6.600;2023-08-01T00:14:41;15.00;;;3.13;;
51836;SDS011;38941;53.254;6.600;2023-08-01T00:16:42;13.65;;;2.80;;
51836;SDS011;38941;53.254;6.600;2023-08-01T00:18:43;10.25;;;2.67;;
51836;SDS011;38941;53.254;6.600;2023-08-01T00:20:43;9.75;;;2.47;;
51836;SDS011;38941;53.254;6.600;2023-08-01T00:22:44;10.85;;;2.70;;
51836;SDS011;38941;53.254;6.600;2023-08-01T00:24:45;6.82;;;2.78;;
51836;SDS011;38941;53.254;6.600;2023-08-01T00:26:47;9.10;;;2.47;;
51836;SDS011;38941;53.254;6.600;2023-08-01T00:28:48;9.43;;;3.10;;
51836;SDS011;38941;53.254;6.600;2023-08-01T00:30:49;8.48;;;2.47;;
51836;SDS011;38941;53.254;6.600;2023-08-01T00:32:49;7.85;;;2.35;;
51836;SDS011;38941;53.254;6.600;2023-08-01T00:34:50;8.13;;;2.38;;
51836;SDS011;38941;53.254;6.600;2023-08-01T00:36:52;8.35;;;2.38;;
51836;SDS011;38941;53.254;6.600;2023-08-01T00:38:52;9.15;;;2.80;;
51836;SDS011;38941;53.254;6.600;2023-08-01T00:40:53;6.68;;;2.60;;
51836;SDS011;38941;53.254;6.600;2023-08-01T00:42:54;8.70;;;2.63;;
51836;SDS011;38941;53.254;6.600;2023-08-01T00:44:56;8.95;;;2.58;;
51836;SDS011;38941;53.254;6.600;2023-08-01T00:46:57;13.77;;;2.65;;
51836;SDS011;38941;53.254;6.600;2023-08-01T00:48:58;8.98;;;2.50;;
51836;SDS011;38941;53.254;6.600;2023-08-01T00:51:02;5.55;;;2.33;;
51836;SDS011;38941;53.254;6.600;2023-08-01T00:53:04;6.22;;;2.65;;
51836;SDS011;38941;53.254;6.600;2023-08-01T00:55:06;9.10;;;2.60;;
51836;SDS011;38941;53.254;6.600;2023-08-01T00:57:07;7.55;;;2.00;;
51836;SDS011;38941;53.254;6.600;2023-08-01T00:59:09;10.20;;;2.75;;
51836;SDS011;38941;53.254;6.600;2023-08-01T01:01:10;7.82;;;2.40;;
51836;SDS011;38941;53.254;6.600;2023-08-01T01:03:11;7.28;;;2.40;;
51836;SDS011;38941;53.254;6.600;2023-08-01T01:05:12;6.13;;;2.13;;
51836;SDS011;38941;53.254;6.600;2023-08-01T01:07:14;6.63;;;1.95;;
51836;SDS011;38941;53.254;6.600;2023-08-01T01:09:17;7.57;;;2.50;;
51836;SDS011;38941;53.254;6.600;2023-08-01T01:11:19;5.68;;;1.90;;
51836;SDS011;38941;53.254;6.600;2023-08-01T01:13:20;6.28;;;2.55;;
51836;SDS011;38941;53.254;6.600;2023-08-01T01:15:20;6.30;;;2.47;;
51836;SDS011;38941;53.254;6.600;2023-08-01T01:17:21;9.45;;;2.75;;
51836;SDS011;38941;53.254;6.600;2023-08-01T01:19:22;9.00;;;2.88;;
51836;SDS011;38941;53.254;6.600;2023-08-01T01:21:22;7.20;;;2.30;;
51836;SDS011;38941;53.254;6.600;2023-08-01T01:23:23;7.85;;;2.50;;
51836;SDS011;38941;53.254;6.600;2023-08-01T01:25:25;9.60;;;2.63;;
51836;SDS011;38941;53.254;6.600;2023-08-01T01:27:27;6.13;;;2.10;;
51836;SDS011;38941;53.254;6.600;2023-08-01T01:29:30;5.95;;;2.28;;
51836;SDS011;38941;53.254;6.600;2023-08-01T01:31:32;5.78;;;1.88;;
51836;SDS011;38941;53.254;6.600;2023-08-01T01:33:34;8.90;;;2.35;;
51836;SDS011;38941;53.254;6.600;2023-08-01T01:35:35;5.72;;;2.22;;
51836;SDS011;38941;53.254;6.600;2023-08-01T01:37:36;13.95;;;2.80;;
51836;SDS011;38941;53.254;6.600;2023-08-01T01:39:37;9.60;;;2.30;;
51836;SDS011;38941;53.254;6.600;2023-08-01T01:41:37;10.43;;;1.83;;
51836;SDS011;38941;53.254;6.600;2023-08-01T01:43:38;10.43;;;2.95;;
51836;SDS011;38941;53.254;6.600;2023-08-01T01:45:39;9.98;;;2.42;;
51836;SDS011;38941;53.254;6.600;2023-08-01T01:47:39;6.35;;;2.45;;
51836;SDS011;38941;53.254;6.600;2023-08-01T01:49:40;8.82;;;2.30;;
51836;SDS011;38941;53.254;6.600;2023-08-01T01:51:41;8.23;;;2.50;;
51836;SDS011;38941;53.254;6.600;2023-08-01T01:53:41;7.70;;;2.22;;
51836;SDS011;38941;53.254;6.600;2023-08-01T01:55:42;11.85;;;2.42;;
51836;SDS011;38941;53.254;6.600;2023-08-01T01:57:43;6.03;;;1.95;;
51836;SDS011;38941;53.254;6.600;2023-08-01T01:59:44;6.50;;;2.63;;
51836;SDS011;38941;53.254;6.600;2023-08-01T02:01:44;8.60;;;2.13;;
51836;SDS011;38941;53.254;6.600;2023-08-01T02:03:45;7.43;;;2.38;;
51836;SDS011;38941;53.254;6.600;2023-08-01T02:05:46;11.60;;;2.90;;
51836;SDS011;38941;53.254;6.600;2023-08-01T02:07:46;9.82;;;2.60;;
51836;SDS011;38941;53.254;6.600;2023-08-01T02:09:47;9.60;;;3.05;;
51836;SDS011;38941;53.254;6.600;2023-08-01T02:11:49;8.65;;;2.30;;
51836;SDS011;38941;53.254;6.600;2023-08-01T02:13:49;10.90;;;2.70;;
51836;SDS011;38941;53.254;6.600;2023-08-01T02:15:50;7.15;;;2.63;;
51836;SDS011;38941;53.254;6.600;2023-08-01T02:17:51;6.88;;;2.75;;
51836;SDS011;38941;53.254;6.600;2023-08-01T02:19:51;11.15;;;2.88;;
51836;SDS011;38941;53.254;6.600;2023-08-01T02:21:53;7.78;;;2.42;;
51836;SDS011;38941;53.254;6.600;2023-08-01T02:23:53;5.57;;;2.72;;
51836;SDS011;38941;53.254;6.600;2023-08-01T02:25:54;9.88;;;3.13;;
51836;SDS011;38941;53.254;6.600;2023-08-01T02:27:56;8.38;;;2.65;;
51836;SDS011;38941;53.254;6.600;2023-08-01T02:29:56;7.78;;;2.80;;
51836;SDS011;38941;53.254;6.600;2023-08-01T02:31:57;13.15;;;2.67;;
51836;SDS011;38941;53.254;6.600;2023-08-01T02:33:58;11.07;;;2.75;;
51836;SDS011;38941;53.254;6.600;2023-08-01T02:35:58;6.43;;;2.50;;
51836;SDS011;38941;53.254;6.600;2023-08-01T02:37:59;11.38;;;2.60;;
51836;SDS011;38941;53.254;6.600;2023-08-01T02:40:01;10.88;;;3.58;;
51836;SDS011;38941;53.254;6.600;2023-08-01T02:42:07;8.73;;;2.70;;
51836;SDS011;38941;53.254;6.600;2023-08-01T02:44:08;8.75;;;3.28;;
51836;SDS011;38941;53.254;6.600;2023-08-01T02:46:09;7.10;;;3.47;;
51836;SDS011;38941;53.254;6.600;2023-08-01T02:48:10;13.05;;;2.92;;
51836;SDS011;38941;53.254;6.600;2023-08-01T02:50:11;7.65;;;2.63;;
51836;SDS011;38941;53.254;6.600;2023-08-01T02:52:11;8.80;;;2.65;;
51836;SDS011;38941;53.254;6.600;2023-08-01T02:54:12;11.13;;;3.10;;
51836;SDS011;38941;53.254;6.600;2023-08-01T02:56:13;8.20;;;2.65;;
51836;SDS011;38941;53.254;6.600;2023-08-01T02:58:13;10.05;;;2.95;;
51836;SDS011;38941;53.254;6.600;2023-08-01T03:00:14;8.35;;;2.58;;
51836;SDS011;38941;53.254;6.600;2023-08-01T03:02:17;5.85;;;2.15;;
51836;SDS011;38941;53.254;6.600;2023-08-01T03:04:18;10.70;;;2.50;;
51836;SDS011;38941;53.254;6.600;2023-08-01T03:06:19;8.73;;;3.10;;
51836;SDS011;38941;53.254;6.600;2023-08-01T03:08:20;7.32;;;2.55;;
51836;SDS011;38941;53.254;6.600;2023-08-01T03:10:21;9.48;;;2.58;;
51836;SDS011;38941;53.254;6.600;2023-08-01T03:12:21;7.53;;;2.30;;
51836;SDS011;38941;53.254;6.600;2023-08-01T03:14:22;5.20;;;2.28;;
51836;SDS011;38941;53.254;6.600;2023-08-01T03:16:23;7.47;;;2.65;;
51836;SDS011;38941;53.254;6.600;2023-08-01T03:18:23;9.48;;;2.45;;
51836;SDS011;38941;53.254;6.600;2023-08-01T03:20:24;8.73;;;2.58;;
51836;SDS011;38941;53.254;6.600;2023-08-01T03:22:25;9.68;;;2.78;;
51836;SDS011;38941;53.254;6.600;2023-08-01T03:24:25;11.82;;;3.20;;
51836;SDS011;38941;53.254;6.600;2023-08-01T03:26:26;11.85;;;3.22;;
51836;SDS011;38941;53.254;6.600;2023-08-01T03:28:28;8.10;;;3.13;;
51836;SDS011;38941;53.254;6.600;2023-08-01T03:30:31;11.27;;;2.92;;
51836;SDS011;38941;53.254;6.600;2023-08-01T03:32:32;10.10;;;2.58;;
51836;SDS011;38941;53.254;6.600;2023-08-01T03:34:33;10.43;;;3.00;;
51836;SDS011;38941;53.254;6.600;2023-08-01T03:36:33;9.25;;;3.42;;
51836;SDS011;38941;53.254;6.600;2023-08-01T03:38:34;10.00;;;2.58;;
51836;SDS011;38941;53.254;6.600;2023-08-01T03:40:35;11.85;;;2.83;;
51836;SDS011;38941;53.254;6.600;2023-08-01T03:42:36;12.18;;;3.47;;
51836;SDS011;38941;53.254;6.600;2023-08-01T03:44:37;10.85;;;3.60;;
51836;SDS011;38941;53.254;6.600;2023-08-01T03:46:38;10.40;;;3.10;;
51836;SDS011;38941;53.254;6.600;2023-08-01T03:48:39;8.57;;;2.85;;
51836;SDS011;38941;53.254;6.600;2023-08-01T03:50:39;8.43;;;3.05;;
51836;SDS011;38941;53.254;6.600;2023-08-01T03:52:40;10.82;;;3.65;;
51836;SDS011;38941;53.254;6.600;2023-08-01T03:54:41;9.25;;;3.17;;
51836;SDS011;38941;53.254;6.600;2023-08-01T03:56:42;11.48;;;3.53;;
51836;SDS011;38941;53.254;6.600;2023-08-01T03:58:43;10.82;;;3.88;;
51836;SDS011;38941;53.254;6.600;2023-08-01T04:00:44;7.68;;;2.67;;
51836;SDS011;38941;53.254;6.600;2023-08-01T04:02:45;6.45;;;3.13;;
51836;SDS011;38941;53.254;6.600;2023-08-01T04:04:46;8.82;;;2.65;;
51836;SDS011;38941;53.254;6.600;2023-08-01T04:06:47;8.02;;;2.80;;
51836;SDS011;38941;53.254;6.600;2023-08-01T04:08:48;9.30;;;3.15;;
51836;SDS011;38941;53.254;6.600;2023-08-01T04:10:48;10.27;;;2.90;;
51836;SDS011;38941;53.254;6.600;2023-08-01T04:12:50;8.35;;;2.78;;
51836;SDS011;38941;53.254;6.600;2023-08-01T04:14:51;8.07;;;2.75;;
51836;SDS011;38941;53.254;6.600;2023-08-01T04:16:53;7.95;;;2.75;;
51836;SDS011;38941;53.254;6.600;2023-08-01T04:18:53;7.70;;;2.72;;
51836;SDS011;38941;53.254;6.600;2023-08-01T04:20:55;6.97;;;2.45;;
51836;SDS011;38941;53.254;6.600;2023-08-01T04:22:55;7.63;;;2.47;;
51836;SDS011;38941;53.254;6.600;2023-08-01T04:24:56;8.10;;;2.10;;
51836;SDS011;38941;53.254;6.600;2023-08-01T04:26:57;6.60;;;2.47;;
51836;SDS011;38941;53.254;6.600;2023-08-01T04:28:57;9.88;;;2.20;;
51836;SDS011;38941;53.254;6.600;2023-08-01T04:30:58;4.45;;;1.77;;
51836;SDS011;38941;53.254;6.600;2023-08-01T04:32:59;6.15;;;1.70;;
51836;SDS011;38941;53.254;6.600;2023-08-01T04:34:59;10.25;;;1.75;;
51836;SDS011;38941;53.254;6.600;2023-08-01T04:37:00;9.73;;;2.17;;
51836;SDS011;38941;53.254;6.600;2023-08-01T04:39:01;4.82;;;1.75;;
51836;SDS011;38941;53.254;6.600;2023-08-01T04:41:01;7.90;;;2.00;;
51836;SDS011;38941;53.254;6.600;2023-08-01T04:43:03;4.28;;;1.63;;
51836;SDS011;38941;53.254;6.600;2023-08-01T04:45:03;9.15;;;1.67;;
51836;SDS011;38941;53.254;6.600;2023-08-01T04:47:07;5.88;;;1.80;;
51836;SDS011;38941;53.254;6.600;2023-08-01T04:49:08;7.18;;;1.77;;
51836;SDS011;38941;53.254;6.600;2023-08-01T04:51:08;6.82;;;1.35;;
51836;SDS011;38941;53.254;6.600;2023-08-01T04:53:09;8.13;;;2.22;;
51836;SDS011;38941;53.254;6.600;2023-08-01T04:55:11;5.50;;;1.88;;
51836;SDS011;38941;53.254;6.600;2023-08-01T04:57:12;8.43;;;1.83;;
51836;SDS011;38941;53.254;6.600;2023-08-01T04:59:12;3.00;;;1.67;;
51836;SDS011;38941;53.254;6.600;2023-08-01T05:01:14;7.55;;;1.67;;
51836;SDS011;38941;53.254;6.600;2023-08-01T05:03:15;5.97;;;1.65;;
51836;SDS011;38941;53.254;6.600;2023-08-01T05:05:15;10.18;;;1.70;;
51836;SDS011;38941;53.254;6.600;2023-08-01T05:07:16;8.55;;;1.50;;
51836;SDS011;38941;53.254;6.600;2023-08-01T05:09:17;6.90;;;1.85;;
51836;SDS011;38941;53.254;6.600;2023-08-01T05:11:17;7.18;;;1.60;;
51836;SDS011;38941;53.254;6.600;2023-08-01T05:13:18;3.88;;;1.77;;
51836;SDS011;38941;53.254;6.600;2023-08-01T05:15:19;11.07;;;1.88;;
51836;SDS011;38941;53.254;6.600;2023-08-01T05:17:21;7.95;;;1.40;;
51836;SDS011;38941;53.254;6.600;2023-08-01T05:19:22;5.95;;;1.23;;
51836;SDS011;38941;53.254;6.600;2023-08-01T05:21:22;6.50;;;1.20;;
51836;SDS011;38941;53.254;6.600;2023-08-01T05:23:23;6.57;;;1.60;;
51836;SDS011;38941;53.254;6.600;2023-08-01T05:25:24;5.45;;;1.23;;
51836;SDS011;38941;53.254;6.600;2023-08-01T05:27:25;6.88;;;1.10;;
51836;SDS011;38941;53.254;6.600;2023-08-01T05:29:25;10.02;;;1.25;;
51836;SDS011;38941;53.254;6.600;2023-08-01T05:31:26;4.35;;;1.02;;
51836;SDS011;38941;53.254;6.600;2023-08-01T05:33:27;4.82;;;1.52;;
51836;SDS011;38941;53.254;6.600;2023-08-01T05:35:28;6.00;;;1.65;;
51836;SDS011;38941;53.254;6.600;2023-08-01T05:37:28;7.07;;;1.38;;
51836;SDS011;38941;53.254;6.600;2023-08-01T05:39:29;6.68;;;1.50;;
51836;SDS011;38941;53.254;6.600;2023-08-01T05:41:30;7.85;;;1.10;;
51836;SDS011;38941;53.254;6.600;2023-08-01T05:43:30;5.60;;;1.20;;
51836;SDS011;38941;53.254;6.600;2023-08-01T05:45:31;7.95;;;1.85;;
51836;SDS011;38941;53.254;6.600;2023-08-01T05:47:31;5.72;;;1.20;;
51836;SDS011;38941;53.254;6.600;2023-08-01T05:49:32;4.85;;;1.30;;
51836;SDS011;38941;53.254;6.600;2023-08-01T05:51:33;4.80;;;1.55;;
51836;SDS011;38941;53.254;6.600;2023-08-01T05:53:34;3.63;;;1.40;;
51836;SDS011;38941;53.254;6.600;2023-08-01T05:55:35;4.93;;;1.27;;
51836;SDS011;38941;53.254;6.600;2023-08-01T05:57:35;3.95;;;1.42;;
51836;SDS011;38941;53.254;6.600;2023-08-01T05:59:36;5.95;;;1.25;;
51836;SDS011;38941;53.254;6.600;2023-08-01T06:01:37;5.30;;;2.38;;
51836;SDS011;38941;53.254;6.600;2023-08-01T06:03:38;9.10;;;1.25;;
51836;SDS011;38941;53.254;6.600;2023-08-01T06:05:38;6.38;;;1.40;;
51836;SDS011;38941;53.254;6.600;2023-08-01T06:07:39;4.07;;;1.27;;
51836;SDS011;38941;53.254;6.600;2023-08-01T06:09:40;7.38;;;2.15;;
51836;SDS011;38941;53.254;6.600;2023-08-01T06:11:40;7.85;;;1.60;;
51836;SDS011;38941;53.254;6.600;2023-08-01T06:13:41;3.17;;;1.30;;
51836;SDS011;38941;53.254;6.600;2023-08-01T06:15:42;7.10;;;1.75;;
51836;SDS011;38941;53.254;6.600;2023-08-01T06:17:42;2.25;;;1.27;;
51836;SDS011;38941;53.254;6.600;2023-08-01T06:19:43;3.03;;;1.63;;
51836;SDS011;38941;53.254;6.600;2023-08-01T06:21:44;3.50;;;1.15;;
51836;SDS011;38941;53.254;6.600;2023-08-01T06:23:45;5.78;;;1.60;;
51836;SDS011;38941;53.254;6.600;2023-08-01T06:25:45;6.38;;;1.48;;
51836;SDS011;38941;53.254;6.600;2023-08-01T06:27:47;3.40;;;1.30;;
51836;SDS011;38941;53.254;6.600;2023-08-01T06:29:47;4.85;;;1.40;;
51836;SDS011;38941;53.254;6.600;2023-08-01T06:31:48;3.10;;;1.27;;
51836;SDS011;38941;53.254;6.600;2023-08-01T06:33:49;4.93;;;1.55;;
51836;SDS011;38941;53.254;6.600;2023-08-01T06:35:49;5.72;;;1.42;;
51836;SDS011;38941;53.254;6.600;2023-08-01T06:37:50;4.15;;;1.33;;
51836;SDS011;38941;53.254;6.600;2023-08-01T06:39:52;5.88;;;1.35;;
51836;SDS011;38941;53.254;6.600;2023-08-01T06:41:54;5.97;;;1.27;;
51836;SDS011;38941;53.254;6.600;2023-08-01T06:43:54;3.97;;;1.55;;
51836;SDS011;38941;53.254;6.600;2023-08-01T06:45:55;3.28;;;1.20;;
51836;SDS011;38941;53.254;6.600;2023-08-01T06:47:56;2.80;;;1.15;;
51836;SDS011;38941;53.254;6.600;2023-08-01T06:49:57;2.45;;;1.10;;
51836;SDS011;38941;53.254;6.600;2023-08-01T06:51:57;2.00;;;1.13;;
51836;SDS011;38941;53.254;6.600;2023-08-01T06:53:58;2.47;;;1.00;;
51836;SDS011;38941;53.254;6.600;2023-08-01T06:55:58;5.30;;;1.35;;
51836;SDS011;38941;53.254;6.600;2023-08-01T06:57:59;4.25;;;1.70;;
51836;SDS011;38941;53.254;6.600;2023-08-01T07:00:00;2.55;;;1.05;;
51836;SDS011;38941;53.254;6.600;2023-08-01T07:02:01;2.45;;;1.13;;
51836;SDS011;38941;53.254;6.600;2023-08-01T07:04:01;4.18;;;1.10;;
51836;SDS011;38941;53.254;6.600;2023-08-01T07:06:02;1.63;;;0.93;;
51836;SDS011;38941;53.254;6.600;2023-08-01T07:08:03;2.80;;;1.02;;
51836;SDS011;38941;53.254;6.600;2023-08-01T07:10:04;3.58;;;1.10;;
51836;SDS011;38941;53.254;6.600;2023-08-01T07:12:05;2.17;;;1.00;;
51836;SDS011;38941;53.254;6.600;2023-08-01T07:14:06;3.10;;;1.02;;
51836;SDS011;38941;53.254;6.600;2023-08-01T07:16:07;2.50;;;1.23;;
51836;SDS011;38941;53.254;6.600;2023-08-01T07:18:07;2.70;;;0.90;;
51836;SDS011;38941;53.254;6.600;2023-08-01T07:20:08;3.90;;;0.95;;
51836;SDS011;38941;53.254;6.600;2023-08-01T07:22:10;2.58;;;1.30;;
51836;SDS011;38941;53.254;6.600;2023-08-01T07:24:11;6.40;;;1.10;;
51836;SDS011;38941;53.254;6.600;2023-08-01T07:26:13;3.22;;;1.10;;
51836;SDS011;38941;53.254;6.600;2023-08-01T07:28:14;3.22;;;0.80;;
51836;SDS011;38941;53.254;6.600;2023-08-01T07:30:15;2.95;;;0.75;;
51836;SDS011;38941;53.254;6.600;2023-08-01T07:32:15;3.58;;;0.98;;
51836;SDS011;38941;53.254;6.600;2023-08-01T07:34:16;3.67;;;0.95;;
51836;SDS011;38941;53.254;6.600;2023-08-01T07:36:17;2.85;;;0.88;;
51836;SDS011;38941;53.254;6.600;2023-08-01T07:38:18;3.47;;;1.10;;
51836;SDS011;38941;53.254;6.600;2023-08-01T07:40:18;2.10;;;0.60;;
51836;SDS011;38941;53.254;6.600;2023-08-01T07:42:19;1.60;;;0.70;;
51836;SDS011;38941;53.254;6.600;2023-08-01T07:44:19;3.03;;;0.70;;
51836;SDS011;38941;53.254;6.600;2023-08-01T07:46:20;4.82;;;1.00;;
51836;SDS011;38941;53.254;6.600;2023-08-01T07:48:21;3.25;;;0.80;;
51836;SDS011;38941;53.254;6.600;2023-08-01T07:50:21;5.68;;;0.70;;
51836;SDS011;38941;53.254;6.600;2023-08-01T07:52:22;2.17;;;0.63;;
51836;SDS011;38941;53.254;6.600;2023-08-01T07:54:23;8.68;;;1.05;;
51836;SDS011;38941;53.254;6.600;2023-08-01T07:56:24;5.53;;;0.90;;
51836;SDS011;38941;53.254;6.600;2023-08-01T07:58:25;6.13;;;0.77;;
51836;SDS011;38941;53.254;6.600;2023-08-01T08:00:26;5.15;;;0.80;;
51836;SDS011;38941;53.254;6.600;2023-08-01T08:02:26;3.10;;;0.65;;
51836;SDS011;38941;53.254;6.600;2023-08-01T08:04:27;4.78;;;0.90;;
51836;SDS011;38941;53.254;6.600;2023-08-01T08:06:28;5.22;;;0.80;;
51836;SDS011;38941;53.254;6.600;2023-08-01T08:08:29;5.32;;;0.75;;
51836;SDS011;38941;53.254;6.600;2023-08-01T08:10:30;1.90;;;0.40;;
51836;SDS011;38941;53.254;6.600;2023-08-01T08:12:31;6.22;;;0.82;;
51836;SDS011;38941;53.254;6.600;2023-08-01T08:14:32;4.45;;;0.50;;
51836;SDS011;38941;53.254;6.600;2023-08-01T08:16:33;2.47;;;0.45;;
51836;SDS011;38941;53.254;6.600;2023-08-01T08:18:35;3.65;;;0.77;;
51836;SDS011;38941;53.254;6.600;2023-08-01T08:20:42;5.80;;;1.13;;
51836;SDS011;38941;53.254;6.600;2023-08-01T08:22:45;4.93;;;0.80;;
51836;SDS011;38941;53.254;6.600;2023-08-01T08:24:46;2.55;;;0.50;;
51836;SDS011;38941;53.254;6.600;2023-08-01T08:26:46;6.07;;;0.80;;
51836;SDS011;38941;53.254;6.600;2023-08-01T08:28:47;2.95;;;0.63;;
51836;SDS011;38941;53.254;6.600;2023-08-01T08:30:48;4.80;;;0.98;;
51836;SDS011;38941;53.254;6.600;2023-08-01T08:32:49;0.90;;;0.70;;
51836;SDS011;38941;53.254;6.600;2023-08-01T08:34:50;1.83;;;0.52;;
51836;SDS011;38941;53.254;6.600;2023-08-01T08:36:51;3.00;;;0.55;;
51836;SDS011;38941;53.254;6.600;2023-08-01T08:38:52;5.85;;;0.80;;
51836;SDS011;38941;53.254;6.600;2023-08-01T08:43:01;8.15;;;1.55;;
51836;SDS011;38941;53.254;6.600;2023-08-01T08:45:05;2.63;;;0.90;;
51836;SDS011;38941;53.254;6.600;2023-08-01T08:47:06;2.00;;;0.73;;
51836;SDS011;38941;53.254;6.600;2023-08-01T08:49:08;3.42;;;1.10;;
51836;SDS011;38941;53.254;6.600;2023-08-01T08:51:09;3.17;;;1.38;;
51836;SDS011;38941;53.254;6.600;2023-08-01T08:53:10;1.02;;;0.40;;
51836;SDS011;38941;53.254;6.600;2023-08-01T08:55:12;3.03;;;0.57;;
51836;SDS011;38941;53.254;6.600;2023-08-01T08:57:13;2.65;;;0.50;;
51836;SDS011;38941;53.254;6.600;2023-08-01T08:59:15;4.90;;;0.70;;
51836;SDS011;38941;53.254;6.600;2023-08-01T09:01:17;6.63;;;0.93;;
51836;SDS011;38941;53.254;6.600;2023-08-01T09:03:18;3.50;;;0.90;;
51836;SDS011;38941;53.254;6.600;2023-08-01T09:05:20;1.23;;;0.63;;
51836;SDS011;38941;53.254;6.600;2023-08-01T09:07:25;4.50;;;0.82;;
51836;SDS011;38941;53.254;6.600;2023-08-01T09:09:30;5.47;;;1.33;;
51836;SDS011;38941;53.254;6.600;2023-08-01T09:11:48;4.05;;;1.02;;
51836;SDS011;38941;53.254;6.600;2023-08-01T09:13:50;3.28;;;0.55;;
51836;SDS011;38941;53.254;6.600;2023-08-01T09:15:50;4.03;;;0.70;;
51836;SDS011;38941;53.254;6.600;2023-08-01T09:17:55;2.67;;;0.90;;
51836;SDS011;38941;53.254;6.600;2023-08-01T09:20:06;3.90;;;1.10;;
51836;SDS011;38941;53.254;6.600;2023-08-01T09:22:14;6.50;;;0.90;;
51836;SDS011;38941;53.254;6.600;2023-08-01T09:24:15;0.82;;;0.50;;
51836;SDS011;38941;53.254;6.600;2023-08-01T09:26:20;5.82;;;1.17;;
51836;SDS011;38941;53.254;6.600;2023-08-01T09:28:21;5.03;;;0.95;;
51836;SDS011;38941;53.254;6.600;2023-08-01T09:30:23;7.53;;;2.65;;
51836;SDS011;38941;53.254;6.600;2023-08-01T09:32:24;5.13;;;1.02;;
51836;SDS011;38941;53.254;6.600;2023-08-01T09:34:25;2.72;;;0.70;;
51836;SDS011;38941;53.254;6.600;2023-08-01T09:36:27;3.40;;;0.60;;
51836;SDS011;38941;53.254;6.600;2023-08-01T09:38:27;0.82;;;0.40;;
51836;SDS011;38941;53.254;6.600;2023-08-01T09:40:38;3.55;;;0.68;;
51836;SDS011;38941;53.254;6.600;2023-08-01T09:42:40;3.28;;;0.47;;
51836;SDS011;38941;53.254;6.600;2023-08-01T09:44:44;3.90;;;0.77;;
51836;SDS011;38941;53.254;6.600;2023-08-01T09:46:58;2.60;;;0.70;;
51836;SDS011;38941;53.254;6.600;2023-08-01T09:49:09;4.30;;;0.95;;
51836;SDS011;38941;53.254;6.600;2023-08-01T09:51:12;0.88;;;0.45;;
51836;SDS011;38941;53.254;6.600;2023-08-01T09:53:14;1.08;;;0.45;;
51836;SDS011;38941;53.254;6.600;2023-08-01T09:55:15;1.80;;;0.40;;
51836;SDS011;38941;53.254;6.600;2023-08-01T09:57:16;3.50;;;0.98;;
51836;SDS011;38941;53.254;6.600;2023-08-01T09:59:21;5.90;;;0.57;;
51836;SDS011;38941;53.254;6.600;2023-08-01T10:01:23;2.95;;;0.77;;
51836;SDS011;38941;53.254;6.600;2023-08-01T10:03:25;6.55;;;0.70;;
51836;SDS011;38941;53.254;6.600;2023-08-01T10:05:29;4.38;;;0.80;;
51836;SDS011;38941;53.254;6.600;2023-08-01T10:07:31;2.47;;;0.60;;
51836;SDS011;38941;53.254;6.600;2023-08-01T10:09:33;3.85;;;0.80;;
51836;SDS011;38941;53.254;6.600;2023-08-01T10:11:36;2.88;;;0.70;;
51836;SDS011;38941;53.254;6.600;2023-08-01T10:13:41;3.15;;;0.68;;
51836;SDS011;38941;53.254;6.600;2023-08-01T10:15:43;3.40;;;0.90;;
51836;SDS011;38941;53.254;6.600;2023-08-01T10:17:44;4.78;;;1.00;;
51836;SDS011;38941;53.254;6.600;2023-08-01T10:19:48;1.60;;;0.82;;
51836;SDS011;38941;53.254;6.600;2023-08-01T10:21:50;2.72;;;0.60;;
51836;SDS011;38941;53.254;6.600;2023-08-01T10:23:52;2.65;;;1.02;;
51836;SDS011;38941;53.254;6.600;2023-08-01T10:25:53;5.22;;;0.75;;
51836;SDS011;38941;53.254;6.600;2023-08-01T10:27:57;4.80;;;1.15;;
51836;SDS011;38941;53.254;6.600;2023-08-01T10:30:02;4.18;;;1.10;;
51836;SDS011;38941;53.254;6.600;2023-08-01T10:32:05;2.85;;;0.60;;
51836;SDS011;38941;53.254;6.600;2023-08-01T10:34:12;4.28;;;0.80;;
51836;SDS011;38941;53.254;6.600;2023-08-01T10:38:18;1.23;;;0.60;;
51836;SDS011;38941;53.254;6.600;2023-08-01T10:40:18;8.43;;;0.80;;
51836;SDS011;38941;53.254;6.600;2023-08-01T10:42:19;2.72;;;0.80;;
51836;SDS011;38941;53.254;6.600;2023-08-01T10:44:20;6.38;;;1.70;;
51836;SDS011;38941;53.254;6.600;2023-08-01T10:46:20;5.15;;;1.33;;
51836;SDS011;38941;53.254;6.600;2023-08-01T10:48:21;5.65;;;0.80;;
51836;SDS011;38941;53.254;6.600;2023-08-01T10:50:22;2.58;;;0.80;;
51836;SDS011;38941;53.254;6.600;2023-08-01T10:54:27;1.83;;;1.00;;
51836;SDS011;38941;53.254;6.600;2023-08-01T10:56:28;3.42;;;0.85;;
51836;SDS011;38941;53.254;6.600;2023-08-01T10:58:31;4.50;;;1.20;;
51836;SDS011;38941;53.254;6.600;2023-08-01T11:00:31;4.68;;;1.02;;
51836;SDS011;38941;53.254;6.600;2023-08-01T11:02:32;4.80;;;0.60;;
51836;SDS011;38941;53.254;6.600;2023-08-01T11:04:33;1.85;;;0.70;;
51836;SDS011;38941;53.254;6.600;2023-08-01T11:06:42;4.53;;;0.73;;
51836;SDS011;38941;53.254;6.600;2023-08-01T11:08:45;5.70;;;0.90;;
51836;SDS011;38941;53.254;6.600;2023-08-01T11:10:49;6.43;;;0.77;;
51836;SDS011;38941;53.254;6.600;2023-08-01T11:12:50;4.90;;;0.75;;
51836;SDS011;38941;53.254;6.600;2023-08-01T11:14:51;3.40;;;0.60;;
51836;SDS011;38941;53.254;6.600;2023-08-01T11:16:53;3.47;;;0.88;;
51836;SDS011;38941;53.254;6.600;2023-08-01T11:18:55;2.10;;;0.60;;
51836;SDS011;38941;53.254;6.600;2023-08-01T11:20:56;4.60;;;0.77;;
51836;SDS011;38941;53.254;6.600;2023-08-01T11:22:58;4.45;;;1.10;;
51836;SDS011;38941;53.254;6.600;2023-08-01T11:25:04;4.15;;;0.70;;
51836;SDS011;38941;53.254;6.600;2023-08-01T11:27:05;3.20;;;1.40;;
51836;SDS011;38941;53.254;6.600;2023-08-01T11:29:07;4.47;;;1.60;;
51836;SDS011;38941;53.254;6.600;2023-08-01T11:31:12;5.25;;;1.40;;
51836;SDS011;38941;53.254;6.600;2023-08-01T11:33:14;3.85;;;1.45;;
51836;SDS011;38941;53.254;6.600;2023-08-01T11:35:18;8.32;;;0.75;;
51836;SDS011;38941;53.254;6.600;2023-08-01T11:37:19;3.65;;;1.63;;
51836;SDS011;38941;53.254;6.600;2023-08-01T11:39:20;3.85;;;1.27;;
51836;SDS011;38941;53.254;6.600;2023-08-01T11:41:24;3.58;;;0.90;;
51836;SDS011;38941;53.254;6.600;2023-08-01T11:43:40;5.38;;;0.90;;
51836;SDS011;38941;53.254;6.600;2023-08-01T11:45:52;2.67;;;0.80;;
51836;SDS011;38941;53.254;6.600;2023-08-01T11:47:54;4.18;;;0.60;;
51836;SDS011;38941;53.254;6.600;2023-08-01T11:49:55;2.80;;;0.52;;
51836;SDS011;38941;53.254;6.600;2023-08-01T11:51:56;4.90;;;0.80;;
51836;SDS011;38941;53.254;6.600;2023-08-01T11:54:03;2.88;;;0.68;;
51836;SDS011;38941;53.254;6.600;2023-08-01T11:56:04;2.13;;;0.60;;
51836;SDS011;38941;53.254;6.600;2023-08-01T11:58:05;2.47;;;0.50;;
51836;SDS011;38941;53.254;6.600;2023-08-01T12:00:06;4.38;;;0.60;;
51836;SDS011;38941;53.254;6.600;2023-08-01T12:02:10;4.50;;;0.73;;
51836;SDS011;38941;53.254;6.600;2023-08-01T12:04:12;4.45;;;0.55;;
51836;SDS011;38941;53.254;6.600;2023-08-01T12:06:30;2.95;;;0.75;;
51836;SDS011;38941;53.254;6.600;2023-08-01T12:08:32;2.58;;;0.77;;
51836;SDS011;38941;53.254;6.600;2023-08-01T12:10:42;2.15;;;0.68;;
51836;SDS011;38941;53.254;6.600;2023-08-01T12:12:44;2.17;;;0.50;;
51836;SDS011;38941;53.254;6.600;2023-08-01T12:14:47;7.72;;;0.70;;
51836;SDS011;38941;53.254;6.600;2023-08-01T12:16:47;4.00;;;0.60;;